createdAt,value
2023-04-02T00:01:36.900Z,1.0399999999999998
2023-04-02T00:04:37.414Z,1.3599999999999999
2023-04-02T00:07:39.949Z,1.08
2023-04-02T00:10:37.479Z,1.3199999999999998
2023-04-02T00:13:37.047Z,1.3199999999999998
2023-04-02T00:16:34.630Z,1.06
2023-04-02T00:19:36.175Z,0.8400000000000001
2023-04-02T00:22:33.741Z,1.36
2023-04-02T00:25:35.428Z,1.02
2023-04-02T00:28:30.839Z,1.3
2023-04-02T00:31:27.492Z,1.1400000000000001
2023-04-02T00:34:27.973Z,1.08
2023-04-02T00:37:27.527Z,1.1600000000000001
2023-04-02T00:40:26.052Z,1.2799999999999998
2023-04-02T00:43:24.594Z,0.9400000000000001
2023-04-02T00:46:30.191Z,1.1
2023-04-02T00:49:34.625Z,1.22
2023-04-02T00:52:35.214Z,1.36
2023-04-02T00:55:37.224Z,1.3
2023-04-02T00:58:40.944Z,1.2399999999999998
2023-04-02T01:01:44.870Z,1.5399999999999998
2023-04-02T01:04:53.892Z,1.3800000000000001
2023-04-02T01:07:56.925Z,1.2399999999999998
2023-04-02T01:11:02.438Z,1.3199999999999998
2023-04-02T01:14:04.983Z,1.44
2023-04-02T01:17:18.566Z,1.12
2023-04-02T01:20:38.983Z,1.44
2023-04-02T01:23:42.539Z,0.9199999999999999
2023-04-02T01:26:48.084Z,0.9199999999999999
2023-04-02T01:29:48.619Z,1.1
2023-04-02T01:32:47.258Z,1.22
2023-04-02T01:35:46.777Z,1.1
2023-04-02T01:38:47.240Z,1.16
2023-04-02T01:41:47.876Z,1.28
2023-04-02T01:44:47.386Z,1.46
2023-04-02T01:47:44.951Z,1.2600000000000002
2023-04-02T01:50:49.506Z,0.9800000000000001
2023-04-02T01:53:47.066Z,1.1
2023-04-02T01:56:43.604Z,1.1600000000000001
2023-04-02T01:59:44.135Z,1.2
2023-04-02T02:02:46.804Z,0.9
2023-04-02T02:05:46.452Z,0.8400000000000001
2023-04-02T02:08:50.777Z,1.1
2023-04-02T02:11:49.337Z,1.1
2023-04-02T02:14:47.876Z,1.3
2023-04-02T02:17:49.552Z,1.3800000000000001
2023-04-02T02:20:47.009Z,1.1199999999999999
2023-04-02T02:23:43.545Z,1.36
2023-04-02T02:26:40.114Z,1.36
2023-04-02T02:29:44.646Z,0.8400000000000001
2023-04-02T02:32:45.226Z,1.5
2023-04-02T02:35:52.794Z,1.1800000000000002
2023-04-02T02:39:03.275Z,0.9800000000000001
2023-04-02T02:42:08.798Z,1.0399999999999998
2023-04-02T02:45:11.287Z,1.3800000000000001
2023-04-02T02:48:11.886Z,1.2399999999999998
2023-04-02T02:51:14.520Z,1.22
2023-04-02T02:54:18.945Z,1.3599999999999999
2023-04-02T02:57:19.560Z,1.22
2023-04-02T03:00:22.380Z,1.2799999999999998
2023-04-02T03:03:21.729Z,2.5
2023-04-02T03:06:22.119Z,4.74
2023-04-02T03:09:26.665Z,3.1799999999999997
2023-04-02T03:12:32.217Z,2.22
2023-04-02T03:15:36.102Z,1.8400000000000003
2023-04-02T03:18:38.321Z,1.6400000000000001
2023-04-02T03:21:42.854Z,1.22
2023-04-02T03:24:49.361Z,1.36
2023-04-02T03:27:49.943Z,0.9800000000000001
2023-04-02T03:30:58.457Z,0.9199999999999999
2023-04-02T03:33:58.991Z,0.8800000000000001
2023-04-02T03:36:59.576Z,1.08
2023-04-02T03:40:02.114Z,0.86
2023-04-02T03:43:06.640Z,0.6599999999999999
2023-04-02T03:46:14.226Z,2.02
2023-04-02T03:49:17.722Z,2.92
2023-04-02T03:52:23.241Z,2.16
2023-04-02T03:55:21.820Z,1.8
2023-04-02T03:58:25.364Z,1.06
2023-04-02T04:01:26.879Z,0.5599999999999999
2023-04-02T04:04:27.500Z,0.8
2023-04-02T04:07:29.985Z,0.9
2023-04-02T04:10:27.562Z,1.02
2023-04-02T04:13:29.512Z,1.86
2023-04-02T04:16:30.717Z,2.12
2023-04-02T04:19:39.138Z,3.1399999999999997
2023-04-02T04:22:41.714Z,3.72
2023-04-02T04:25:40.309Z,4.04
2023-04-02T04:28:43.798Z,3
2023-04-02T04:31:54.382Z,4.08
2023-04-02T04:34:55.919Z,2.66
2023-04-02T04:37:59.417Z,1
2023-04-02T04:40:59.964Z,0.7
2023-04-02T04:44:06.501Z,0.6799999999999999
2023-04-02T04:47:08.144Z,0.96
2023-04-02T04:50:08.554Z,1.06
2023-04-02T04:53:07.149Z,1.1
2023-04-02T04:56:18.675Z,1.5
2023-04-02T04:59:15.202Z,1.94
2023-04-02T05:02:17.764Z,1.8199999999999998
2023-04-02T05:05:18.448Z,0.8200000000000001
2023-04-02T05:08:20.859Z,0.9199999999999999
2023-04-02T05:11:23.372Z,1.1600000000000001
2023-04-02T05:14:26.951Z,0.96
2023-04-02T05:17:28.540Z,0.6599999999999999
2023-04-02T05:20:32.039Z,1.58
2023-04-02T05:23:34.582Z,1.6600000000000001
2023-04-02T05:26:39.064Z,2.68
2023-04-02T05:29:42.644Z,3.4
2023-04-02T05:32:44.273Z,3.72
2023-04-02T05:35:49.794Z,3.5799999999999996
2023-04-02T05:38:52.282Z,9
2023-04-02T05:42:00.167Z,7.039999999999999
2023-04-02T05:45:04.368Z,4.859999999999999
2023-04-02T05:48:03.938Z,4.46
2023-04-02T05:51:04.472Z,13.680000000000001
2023-04-02T05:54:06.003Z,6.62
2023-04-02T05:57:09.622Z,4.32
2023-04-02T06:00:15.079Z,2.6399999999999997
2023-04-02T06:03:17.775Z,2.8
2023-04-02T06:06:19.160Z,3.3
2023-04-02T06:09:22.733Z,7.5200000000000005
2023-04-02T06:12:27.267Z,5.159999999999999
2023-04-02T06:15:23.801Z,4.14
2023-04-02T06:18:24.274Z,4.56
2023-04-02T06:21:21.917Z,7.619999999999999
2023-04-02T06:24:24.557Z,5.5600000000000005
2023-04-02T06:27:26.028Z,3.3600000000000003
2023-04-02T06:30:26.578Z,3.3200000000000003
2023-04-02T06:33:23.124Z,3.8
2023-04-02T06:36:23.711Z,5.08
2023-04-02T06:39:22.255Z,5.46
2023-04-02T06:42:21.801Z,6
2023-04-02T06:45:21.307Z,5.94
2023-04-02T06:48:20.881Z,8.040000000000001
2023-04-02T06:51:21.403Z,4.74
2023-04-02T06:54:19.980Z,3.3
2023-04-02T06:57:17.537Z,3.4799999999999995
2023-04-02T07:00:22.075Z,3.6199999999999997
2023-04-02T07:03:22.581Z,3.04
2023-04-02T07:06:21.192Z,3.3
2023-04-02T07:09:16.727Z,6.4399999999999995
2023-04-02T07:12:13.269Z,2.5599999999999996
2023-04-02T07:15:10.805Z,6.8
2023-04-02T07:18:06.439Z,8.66
2023-04-02T07:21:03.970Z,3.5799999999999996
2023-04-02T07:23:59.527Z,4.32
2023-04-02T07:26:57.102Z,4.180000000000001
2023-04-02T07:29:52.672Z,3.3600000000000003
2023-04-02T07:32:49.262Z,4.040000000000001
2023-04-02T07:35:46.781Z,4.64
2023-04-02T07:38:42.299Z,6.02
2023-04-02T07:41:43.850Z,6.8
2023-04-02T07:44:39.452Z,5.0600000000000005
2023-04-02T07:47:35.438Z,7.6
2023-04-02T07:50:30.592Z,6.62
2023-04-02T07:53:29.284Z,2.28
2023-04-02T07:56:25.657Z,1.6400000000000001
2023-04-02T07:59:21.252Z,2.28
2023-04-02T08:02:19.838Z,1.94
2023-04-02T08:05:15.354Z,1.92
2023-04-02T08:08:10.885Z,2.0599999999999996
2023-04-02T08:11:07.462Z,1.92
2023-04-02T08:14:03.025Z,1.3399999999999999
2023-04-02T08:16:59.704Z,1.56
2023-04-02T08:19:56.182Z,1.9
2023-04-02T08:22:51.697Z,1.8199999999999998
2023-04-02T08:25:47.235Z,1.54
2023-04-02T08:28:42.828Z,2.88
2023-04-02T08:31:40.379Z,2.16
2023-04-02T08:34:35.958Z,1.86
2023-04-02T08:40:42.026Z,12.040000000000001
2023-04-02T08:43:56.528Z,7.159999999999999
2023-04-02T08:47:01.091Z,12.86
2023-04-02T08:50:02.597Z,6.26
2023-04-02T08:53:03.201Z,5.1
2023-04-02T08:56:08.708Z,2.2
2023-04-02T08:59:17.259Z,6.2
2023-04-02T09:02:25.823Z,4.96
2023-04-02T09:05:26.278Z,3.72
2023-04-02T09:08:24.834Z,3.1
2023-04-02T09:11:24.394Z,3.8
2023-04-02T09:14:26.964Z,6.4
2023-04-02T09:17:25.571Z,6.82
2023-04-02T09:20:26.065Z,12.64
2023-04-02T09:23:24.622Z,4.02
2023-04-02T09:26:25.141Z,2.22
2023-04-02T09:29:28.697Z,2.5799999999999996
2023-04-02T09:32:37.298Z,1.92
2023-04-02T09:35:44.873Z,2.48
2023-04-02T09:38:51.318Z,2.7400000000000007
2023-04-02T09:42:02.914Z,5.48
2023-04-02T09:45:00.367Z,3.04
2023-04-02T09:47:58.964Z,3.54
2023-04-02T09:51:02.476Z,2.2199999999999998
2023-04-02T09:54:06.019Z,4.76
2023-04-02T09:57:04.627Z,6.9
2023-04-02T10:00:14.598Z,2.56
2023-04-02T10:03:17.655Z,4.58
2023-04-02T10:06:16.194Z,3.0199999999999996
2023-04-02T10:09:20.746Z,2.94
2023-04-02T10:12:16.284Z,1.9599999999999997
2023-04-02T10:15:16.863Z,3
2023-04-02T10:18:15.497Z,3.16
2023-04-02T10:21:16.039Z,2
2023-04-02T10:24:13.500Z,2.8200000000000003
2023-04-02T10:27:23.014Z,2.54
2023-04-02T10:30:28.604Z,1.8
2023-04-02T10:33:32.116Z,2.6
2023-04-02T10:36:38.668Z,3.94
2023-04-02T10:39:41.165Z,1.8400000000000003
2023-04-02T10:42:45.677Z,2.46
2023-04-02T10:49:06.842Z,1.6800000000000002
2023-04-02T10:52:13.292Z,2.2600000000000002
2023-04-02T10:55:16.856Z,1.52
2023-04-02T10:58:19.422Z,1.8
2023-04-02T11:01:20.951Z,1.6800000000000002
2023-04-02T11:04:21.452Z,1.94
2023-04-02T11:07:21.027Z,2.16
2023-04-02T11:10:19.556Z,2.7800000000000002
2023-04-02T11:13:22.175Z,4
2023-04-02T11:16:18.715Z,3.9200000000000004
2023-04-02T11:19:21.270Z,3.22
2023-04-02T11:22:20.807Z,2.72
2023-04-02T11:25:21.364Z,3.2
2023-04-02T11:28:26.884Z,3.5200000000000005
2023-04-02T11:31:22.449Z,2.7
2023-04-02T11:34:28.967Z,2.9
2023-04-02T11:37:33.510Z,3.6800000000000006
2023-04-02T11:40:41.089Z,3.22
2023-04-02T11:43:49.584Z,7.24
2023-04-02T11:46:51.274Z,6.539999999999999
2023-04-02T11:50:00.643Z,3.2400000000000007
2023-04-02T11:53:00.207Z,3
2023-04-02T11:56:06.710Z,2.44
2023-04-02T11:59:14.236Z,5.279999999999999
2023-04-02T12:02:20.796Z,5.08
2023-04-02T12:05:27.375Z,3.84
2023-04-02T12:08:54.340Z,5.640000000000001
2023-04-02T12:11:42.449Z,3.9200000000000004
2023-04-02T12:14:46.015Z,5.960000000000001
2023-04-02T12:17:50.504Z,3.6199999999999997
2023-04-02T12:20:53.035Z,1.48
2023-04-02T12:23:53.580Z,2.34
2023-04-02T12:27:15.073Z,1.8800000000000001
2023-04-02T12:30:12.591Z,1.7600000000000002
2023-04-02T12:33:13.203Z,2.16
2023-04-02T12:36:13.745Z,1.72
2023-04-02T12:39:17.254Z,2.48
2023-04-02T12:42:17.821Z,2.2399999999999998
2023-04-02T12:45:23.329Z,2.2800000000000002
2023-04-02T12:51:28.424Z,1.92
2023-04-02T12:54:24.235Z,2.5
2023-04-02T12:57:23.644Z,2.6800000000000006
2023-04-02T13:00:29.042Z,2.0799999999999996
2023-04-02T13:03:29.661Z,1.7399999999999998
2023-04-02T13:06:27.171Z,2.52
2023-04-02T13:09:28.748Z,2.5
2023-04-02T13:12:26.300Z,2.52
2023-04-02T13:15:28.187Z,1.8
2023-04-02T13:18:30.399Z,2.2
2023-04-02T13:21:30.971Z,1.1800000000000002
2023-04-02T13:24:27.499Z,1.04
2023-04-02T13:27:26.046Z,1.5399999999999998
2023-04-02T13:30:24.622Z,1.52
2023-04-02T13:33:20.122Z,2.34
2023-04-02T13:36:15.793Z,4.840000000000001
2023-04-02T13:39:12.293Z,4.32
2023-04-02T13:42:11.837Z,1.6800000000000002
2023-04-02T13:45:16.361Z,1.52
2023-04-02T13:48:13.921Z,2.1
2023-04-02T13:51:12.252Z,6.459999999999999
2023-04-02T13:54:14.067Z,7.76
2023-04-02T13:57:11.655Z,2.12
2023-04-02T14:00:08.156Z,3.54
2023-04-02T14:03:06.782Z,3.2400000000000007
2023-04-02T14:06:11.225Z,3.66
2023-04-02T14:09:18.752Z,1.56
2023-04-02T14:12:22.333Z,2.52
2023-04-02T14:15:29.821Z,0.9400000000000001
2023-04-02T14:18:41.345Z,2.38
2023-04-02T14:21:49.949Z,1.94
2023-04-02T14:24:53.464Z,2.5199999999999996
2023-04-02T14:28:00.960Z,2.2
2023-04-02T14:31:02.581Z,1.3
2023-04-02T14:34:09.094Z,1.7600000000000002
2023-04-02T14:37:17.568Z,3.2
2023-04-02T14:40:22.142Z,1.3
2023-04-02T14:43:24.732Z,2.78
2023-04-02T14:46:31.229Z,2.5599999999999996
2023-04-02T14:49:31.757Z,3.1
2023-04-02T14:52:33.287Z,11.279999999999998
2023-04-02T14:55:37.844Z,5.08
2023-04-02T14:58:37.337Z,9.219999999999999
2023-04-02T15:01:37.975Z,28.559999999999995
2023-04-02T15:07:49.995Z,14.7
2023-04-02T15:10:55.569Z,3.6799999999999997
2023-04-02T15:14:01.057Z,8.16
2023-04-02T15:16:58.639Z,23.419999999999998
2023-04-02T15:19:59.280Z,7.2
2023-04-02T15:23:04.719Z,11.2
2023-04-02T15:26:12.221Z,11.78
2023-04-02T15:29:28.200Z,9.4
2023-04-02T15:32:24.305Z,5.380000000000001
2023-04-02T15:35:26.852Z,5.760000000000001
2023-04-02T15:38:33.392Z,3.2600000000000002
2023-04-02T15:41:36.893Z,4.5
2023-04-02T15:44:42.487Z,7.840000000000001
2023-04-02T15:47:46.058Z,6.460000000000001
2023-04-02T15:50:54.596Z,5.44
2023-04-02T15:54:03.052Z,5.66
2023-04-02T15:57:11.726Z,6.6
2023-04-02T16:00:23.106Z,4.04
2023-04-02T16:03:38.698Z,8.04
2023-04-02T16:06:56.108Z,4.380000000000001
2023-04-02T16:10:00.686Z,6.7
2023-04-02T16:12:57.238Z,10.22
2023-04-02T16:16:01.788Z,7.639999999999999
2023-04-02T16:19:16.137Z,14.88
2023-04-02T16:22:14.871Z,16.96
2023-04-02T16:25:16.477Z,26.52
2023-04-02T16:28:18.928Z,21.919999999999998
2023-04-02T16:31:24.545Z,11.82
2023-04-02T16:34:33.998Z,16.68
2023-04-02T16:37:39.537Z,9.879999999999999
2023-04-02T16:40:45.135Z,9.7
2023-04-02T16:43:53.597Z,12.8
2023-04-02T16:46:58.189Z,6.08
2023-04-02T16:50:01.691Z,17.3
2023-04-02T16:53:10.179Z,10.040000000000001
2023-04-02T16:56:20.745Z,12.02
2023-04-02T16:59:27.272Z,13.379999999999999
2023-04-02T17:02:36.899Z,12.5
2023-04-02T17:05:44.435Z,12.2
2023-04-02T17:08:49.849Z,10.34
2023-04-02T17:11:53.641Z,12.06
2023-04-02T17:14:56.919Z,11.379999999999999
2023-04-02T17:18:00.601Z,11
2023-04-02T17:21:08.118Z,24.98
2023-04-02T17:24:17.547Z,23.080000000000002
2023-04-02T17:27:25.065Z,16.919999999999998
2023-04-02T17:30:35.808Z,5.119999999999999
2023-04-02T17:33:45.139Z,3.78
2023-04-02T17:36:58.623Z,2.84
2023-04-02T17:40:17.090Z,4.52
2023-04-02T17:43:25.633Z,4.96
2023-04-02T17:46:34.236Z,15.64
2023-04-02T17:48:36.903Z,25.04
2023-04-02T17:51:46.388Z,23.96
2023-04-02T17:54:57.938Z,33.46
2023-04-02T17:58:18.420Z,42.220000000000006
2023-04-02T18:01:25.048Z,17.44
2023-04-02T18:04:38.486Z,11.599999999999998
2023-04-02T18:07:46.020Z,2.62
2023-04-02T18:10:54.786Z,2.32
2023-04-02T18:14:11.071Z,2.5
2023-04-02T18:17:23.644Z,2.76
2023-04-02T18:20:31.147Z,3.7400000000000007
2023-04-02T18:23:42.621Z,5.159999999999999
2023-04-02T18:26:49.200Z,4.64
2023-04-02T18:30:04.674Z,3.44
2023-04-02T18:33:22.234Z,3.7
2023-04-02T18:36:33.714Z,3.4200000000000004
2023-04-02T18:39:48.906Z,5.08
2023-04-02T18:43:06.584Z,3.6
2023-04-02T18:46:13.289Z,2.96
2023-04-02T18:49:27.823Z,2.6800000000000006
2023-04-02T18:52:30.318Z,2.2
2023-04-02T18:55:37.860Z,1.8399999999999999
2023-04-02T18:58:50.389Z,2.3
2023-04-02T19:01:57.854Z,3.5799999999999996
2023-04-02T19:05:02.437Z,5.86
2023-04-02T19:08:10.976Z,7.94
2023-04-02T19:11:20.239Z,25.9
2023-04-02T19:14:31.035Z,10.080000000000002
2023-04-02T19:17:37.578Z,5.2
2023-04-02T19:20:50.074Z,5.2
2023-04-02T19:24:11.963Z,4.840000000000001
2023-04-02T19:27:17.116Z,3
2023-04-02T19:30:28.655Z,2.12
2023-04-02T19:33:45.759Z,1.36
2023-04-02T19:37:06.523Z,2.32
2023-04-02T19:40:21.362Z,7.0200000000000005
2023-04-02T19:43:26.671Z,4.38
2023-04-02T19:46:29.828Z,4.38
2023-04-02T19:49:42.807Z,4.4
2023-04-02T19:52:52.853Z,4.24
2023-04-02T19:56:11.646Z,3.8600000000000003
2023-04-02T19:59:21.302Z,3.54
2023-04-02T20:02:24.686Z,3.12
2023-04-02T20:05:26.399Z,4.459999999999999
2023-04-02T20:08:35.680Z,5.040000000000001
2023-04-02T20:11:38.467Z,6.12
2023-04-02T20:14:34.047Z,5.260000000000001
2023-04-02T20:17:34.604Z,4.04
2023-04-02T20:20:40.156Z,4.9399999999999995
2023-04-02T20:23:36.662Z,4.56
2023-04-02T20:26:37.216Z,4.840000000000001
2023-04-02T20:29:33.803Z,4.58
2023-04-02T20:32:38.478Z,4.279999999999999
2023-04-02T20:35:49.896Z,3.6399999999999997
2023-04-02T20:38:45.436Z,3.94
2023-04-02T20:42:02.918Z,3.04
2023-04-02T20:45:16.116Z,3.3200000000000003
2023-04-02T20:48:21.973Z,3.6
2023-04-02T20:51:30.909Z,3.6399999999999997
2023-04-02T20:54:36.013Z,2.44
2023-04-02T20:57:42.545Z,2.12
2023-04-02T21:00:49.492Z,2.0200000000000005
2023-04-02T21:03:58.052Z,2.3
2023-04-02T21:07:09.192Z,1.8800000000000001
2023-04-02T21:10:09.689Z,1.9600000000000002
2023-04-02T21:13:23.446Z,2.0599999999999996
2023-04-02T21:16:24.766Z,1.7
2023-04-02T21:19:36.870Z,1.8
2023-04-02T21:22:36.823Z,1.6600000000000001
2023-04-02T21:25:47.122Z,2
2023-04-02T21:28:47.882Z,1.6
2023-04-02T21:31:44.489Z,1.3599999999999999
2023-04-02T21:34:41.042Z,1.7600000000000002
2023-04-02T21:37:37.991Z,1.3199999999999998
2023-04-02T21:40:40.107Z,1.6
2023-04-02T21:43:45.653Z,1.6
2023-04-02T21:46:47.604Z,1.92
2023-04-02T21:49:50.746Z,1.6199999999999999
2023-04-02T21:52:46.311Z,1.8800000000000001
2023-04-02T21:55:46.833Z,2.1800000000000006
2023-04-02T21:58:48.404Z,2.2600000000000002
2023-04-02T22:01:55.052Z,2.48
2023-04-02T22:05:06.427Z,1.8800000000000001
2023-04-02T22:08:07.058Z,1.7399999999999998
2023-04-02T22:11:09.543Z,2.1
2023-04-02T22:14:06.105Z,1.6
2023-04-02T22:17:06.686Z,1.86
2023-04-02T22:20:16.306Z,1.6600000000000001
2023-04-02T22:23:25.681Z,2
2023-04-02T22:26:33.238Z,1.42
2023-04-02T22:29:34.621Z,1.58
2023-04-02T22:32:36.415Z,2.22
2023-04-02T22:35:31.923Z,1.8400000000000003
2023-04-02T22:38:36.430Z,1.7600000000000002
2023-04-02T22:41:36.988Z,1.6600000000000001
2023-04-02T22:44:36.501Z,1.92
2023-04-02T22:47:37.096Z,1.5
2023-04-02T22:50:42.249Z,1.4
2023-04-02T22:53:38.168Z,1.1800000000000002
2023-04-02T22:56:48.692Z,1.94
2023-04-02T22:59:44.234Z,2.0599999999999996
2023-04-02T23:02:39.864Z,1
2023-04-02T23:05:36.381Z,1.3399999999999999
2023-04-02T23:08:42.948Z,1.58
2023-04-02T23:11:58.332Z,1.5799999999999998
2023-04-02T23:15:01.990Z,1.8199999999999998
2023-04-02T23:18:02.506Z,1.72
2023-04-02T23:20:58.127Z,0.9
2023-04-02T23:23:54.648Z,1.44
2023-04-02T23:26:51.185Z,1.7600000000000002
2023-04-02T23:29:46.758Z,1.6600000000000001
2023-04-02T23:32:42.377Z,1.58
2023-04-02T23:35:37.917Z,2
2023-04-02T23:38:35.425Z,1.7399999999999998
2023-04-02T23:41:35.031Z,2.04
2023-04-02T23:44:32.598Z,2.22
2023-04-02T23:47:28.157Z,2.44
2023-04-02T23:50:23.633Z,2.7
2023-04-02T23:53:19.223Z,2.1399999999999997
2023-04-02T23:56:14.785Z,1.8800000000000001
2023-04-02T23:59:10.380Z,1.9
